createdAt,value
2023-04-17T00:01:05.633Z,99913.84
2023-04-17T00:03:33.164Z,99923.84
2023-04-17T00:06:03.360Z,99916.69
2023-04-17T00:08:31.275Z,99907.50
2023-04-17T00:11:07.253Z,99915.88
2023-04-17T00:13:35.766Z,99911.50
2023-04-17T00:16:03.522Z,99917.84
2023-04-17T00:18:30.593Z,99905.09
2023-04-17T00:20:57.405Z,99908.28
2023-04-17T00:23:25.711Z,99906.69
2023-04-17T00:25:52.562Z,99912.47
2023-04-17T00:28:19.501Z,99909.63
2023-04-17T00:30:46.879Z,99911.63
2023-04-17T00:33:13.973Z,99911.84
2023-04-17T00:35:40.870Z,99906.41
2023-04-17T00:38:10.815Z,99901.41
2023-04-17T00:40:37.901Z,99907.19
2023-04-17T00:43:06.569Z,99909.97
2023-04-17T00:45:35.853Z,99911.34
2023-04-17T00:48:05.939Z,99912.91
2023-04-17T00:50:33.555Z,99910.91
2023-04-17T00:53:00.918Z,99908.94
2023-04-17T00:55:32.428Z,99907.94
2023-04-17T00:57:59.941Z,99904.09
2023-04-17T01:00:26.915Z,99904.47
2023-04-17T01:02:57.374Z,99906.09
2023-04-17T01:05:27.854Z,99907.28
2023-04-17T01:07:57.390Z,99913.66
2023-04-17T01:10:24.466Z,99908.47
2023-04-17T01:13:08.261Z,99913.19
2023-04-17T01:15:37.678Z,99916.38
2023-04-17T01:18:06.708Z,99908.00
2023-04-17T01:20:34.240Z,99906.41
2023-04-17T01:23:02.005Z,99905.16
2023-04-17T01:25:29.575Z,99905.53
2023-04-17T01:27:56.889Z,99901.53
2023-04-17T01:30:24.473Z,99904.94
2023-04-17T01:33:03.288Z,99904.31
2023-04-17T01:35:30.367Z,99902.28
2023-04-17T01:37:57.640Z,99890.53
2023-04-17T01:40:31.081Z,99902.50
2023-04-17T01:42:58.101Z,99899.41
2023-04-17T01:45:25.053Z,99905.38
2023-04-17T01:47:52.005Z,99908.78
2023-04-17T01:50:19.079Z,99901.38
2023-04-17T01:52:46.371Z,99901.59
2023-04-17T01:55:13.604Z,99909.16
2023-04-17T01:57:41.183Z,99901.38
2023-04-17T02:00:09.624Z,99901.38
2023-04-17T02:02:43.525Z,99914.13
2023-04-17T02:05:11.754Z,99904.38
2023-04-17T02:07:38.609Z,99903.13
2023-04-17T02:10:05.879Z,99901.34
2023-04-17T02:12:33.016Z,99905.72
2023-04-17T02:15:01.421Z,99896.97
2023-04-17T02:17:32.999Z,99900.53
2023-04-17T02:19:59.800Z,99886.59
2023-04-17T02:22:26.655Z,99888.59
2023-04-17T02:24:53.551Z,99891.16
2023-04-17T02:27:20.322Z,99900.16
2023-04-17T02:29:47.363Z,99898.56
2023-04-17T02:32:16.965Z,99885.41
2023-04-17T02:34:44.513Z,99896.34
2023-04-17T02:37:13.340Z,99883.00
2023-04-17T02:39:41.245Z,99882.22
2023-04-17T02:42:10.351Z,99882.22
2023-04-17T02:44:37.189Z,99883.00
2023-04-17T02:47:04.169Z,99887.78
2023-04-17T02:49:32.999Z,99878.41
2023-04-17T02:52:00.189Z,99893.38
2023-04-17T02:54:27.038Z,99892.59
2023-04-17T02:56:59.338Z,99889.25
2023-04-17T02:59:27.107Z,99888.44
2023-04-17T03:01:54.398Z,99887.09
2023-04-17T03:04:22.371Z,99882.72
2023-04-17T03:06:49.433Z,99892.50
2023-04-17T03:09:18.350Z,99892.50
2023-04-17T03:11:45.941Z,99885.72
2023-04-17T03:14:12.857Z,99895.53
2023-04-17T03:16:40.619Z,99889.16
2023-04-17T03:19:08.164Z,99882.81
2023-04-17T03:21:35.791Z,99886.00
2023-04-17T03:24:02.861Z,99874.50
2023-04-17T03:26:30.724Z,99880.50
2023-04-17T03:29:01.151Z,99878.28
2023-04-17T03:31:28.294Z,99875.75
2023-04-17T03:33:55.179Z,99883.72
2023-04-17T03:36:23.235Z,99873.72
2023-04-17T03:38:51.431Z,99880.13
2023-04-17T03:41:18.357Z,99880.84
2023-04-17T03:43:45.756Z,99881.88
2023-04-17T03:46:12.573Z,99885.03
2023-04-17T03:48:39.444Z,99894.19
2023-04-17T03:51:06.562Z,99892.22
2023-04-17T03:53:36.226Z,99885.44
2023-04-17T03:56:06.902Z,99889.41
2023-04-17T03:58:39.103Z,99896.38
2023-04-17T04:01:10.772Z,99900.41
2023-04-17T04:03:46.026Z,99897.66
2023-04-17T04:06:13.175Z,99908.81
2023-04-17T04:08:41.371Z,99903.63
2023-04-17T04:11:08.550Z,99910.66
2023-04-17T04:13:37.986Z,99917.84
2023-04-17T04:16:06.908Z,99904.56
2023-04-17T04:18:37.254Z,99907.53
2023-04-17T04:21:05.918Z,99910.91
2023-04-17T04:23:38.523Z,99916.91
2023-04-17T04:26:05.585Z,99912.19
2023-04-17T04:28:38.689Z,99922.59
2023-04-17T04:31:09.837Z,99916.53
2023-04-17T04:33:40.057Z,99916.75
2023-04-17T04:36:07.109Z,99918.53
2023-04-17T04:38:35.871Z,99921.31
2023-04-17T04:41:10.589Z,99918.34
2023-04-17T04:43:39.244Z,99915.59
2023-04-17T04:46:09.073Z,99921.97
2023-04-17T04:48:42.839Z,99927.22
2023-04-17T04:51:10.284Z,99924.28
2023-04-17T04:53:38.732Z,99929.50
2023-04-17T04:56:07.810Z,99927.53
2023-04-17T04:58:38.660Z,99919.78
2023-04-17T05:01:06.849Z,99921.41
2023-04-17T05:03:39.766Z,99925.22
2023-04-17T05:06:09.552Z,99917.84
2023-04-17T05:08:45.139Z,99913.06
2023-04-17T05:11:15.438Z,99912.50
2023-04-17T05:13:43.183Z,99921.25
2023-04-17T05:16:18.874Z,99910.47
2023-04-17T05:18:48.082Z,99928.47
2023-04-17T05:21:18.724Z,99930.06
2023-04-17T05:23:50.396Z,99924.84
2023-04-17T05:26:17.291Z,99926.44
2023-04-17T05:28:45.273Z,99930.44
2023-04-17T05:31:16.026Z,99940.44
2023-04-17T05:33:43.561Z,99926.84
2023-04-17T05:36:10.693Z,99942.38
2023-04-17T05:38:40.086Z,99936.38
2023-04-17T05:41:09.397Z,99933.19
2023-04-17T05:43:38.839Z,99950.53
2023-04-17T05:46:06.813Z,99943.09
2023-04-17T05:48:36.182Z,99946.66
2023-04-17T05:51:04.244Z,99939.28
2023-04-17T05:53:32.413Z,99959.00
2023-04-17T05:56:00.197Z,99936.81
2023-04-17T05:58:29.754Z,99953.78
2023-04-17T06:00:59.398Z,99935.31
2023-04-17T06:03:28.637Z,99956.34
2023-04-17T06:06:16.019Z,99950.72
2023-04-17T06:08:42.986Z,99948.47
2023-04-17T06:11:10.221Z,99950.34
2023-04-17T06:13:37.351Z,99949.28
2023-04-17T06:16:05.714Z,99949.78
2023-04-17T06:18:32.571Z,99947.78
2023-04-17T06:20:59.972Z,99948.28
2023-04-17T06:23:28.670Z,99961.97
2023-04-17T06:25:56.850Z,99965.06
2023-04-17T06:28:26.420Z,99962.31
2023-04-17T06:30:55.171Z,99961.88
2023-04-17T06:33:25.360Z,99964.13
2023-04-17T06:35:53.658Z,99967.28
2023-04-17T06:38:43.701Z,99979.34
2023-04-17T06:41:11.802Z,99987.19
2023-04-17T06:43:40.532Z,99985.66
2023-04-17T06:46:14.791Z,99980.91
2023-04-17T06:48:43.213Z,99987.38
2023-04-17T06:51:10.079Z,99989.88
2023-04-17T06:53:37.138Z,99985.53
2023-04-17T06:56:04.279Z,99986.41
2023-04-17T06:58:31.284Z,99988.59
2023-04-17T07:00:59.365Z,99990.50
2023-04-17T07:03:26.375Z,99983.09
2023-04-17T07:05:53.225Z,99990.47
2023-04-17T07:08:22.458Z,99991.03
2023-04-17T07:10:49.576Z,99981.94
2023-04-17T07:13:16.470Z,99988.88
2023-04-17T07:15:43.467Z,99991.03
2023-04-17T07:18:11.283Z,99993.00
2023-04-17T07:20:38.962Z,99993.63
2023-04-17T07:23:05.946Z,99992.22
2023-04-17T07:25:32.977Z,99998.34
2023-04-17T07:27:59.907Z,99995.41
2023-04-17T07:30:26.955Z,99991.09
2023-04-17T07:32:54.993Z,99993.09
2023-04-17T07:35:22.841Z,99988.97
2023-04-17T07:37:49.697Z,99987.13
2023-04-17T07:40:18.287Z,99988.91
2023-04-17T07:42:46.311Z,99992.06
2023-04-17T07:45:13.134Z,100002.50
2023-04-17T07:47:40.071Z,99996.69
2023-04-17T07:50:07.540Z,99995.91
2023-04-17T07:52:34.364Z,100000.50
2023-04-17T07:55:01.283Z,100003.69
2023-04-17T07:57:30.137Z,100004.94
2023-04-17T07:59:57.218Z,100000.13
2023-04-17T08:02:24.230Z,99997.00
2023-04-17T08:04:52.360Z,100002.03
2023-04-17T08:07:20.416Z,100002.66
2023-04-17T08:09:47.804Z,100011.25
2023-04-17T08:12:14.634Z,100012.75
2023-04-17T08:14:42.096Z,100011.50
2023-04-17T08:17:09.050Z,100018.16
2023-04-17T08:19:35.999Z,100011.63
2023-04-17T08:22:04.485Z,100014.38
2023-04-17T08:24:31.964Z,100009.59
2023-04-17T08:27:01.752Z,100006.97
2023-04-17T08:29:28.650Z,100002.44
2023-04-17T08:32:10.869Z,100006.25
2023-04-17T08:34:43.744Z,100010.47
2023-04-17T08:37:10.932Z,100012.75
2023-04-17T08:39:37.959Z,100008.66
2023-04-17T08:42:13.352Z,100009.16
2023-04-17T08:44:44.583Z,100013.13
2023-04-17T08:47:13.417Z,100002.84
2023-04-17T08:49:43.939Z,100002.59
2023-04-17T08:52:11.463Z,100009.75
2023-04-17T08:54:39.619Z,100006.44
2023-04-17T08:57:07.109Z,100003.00
2023-04-17T08:59:38.815Z,99994.59
2023-04-17T09:02:08.127Z,100000.34
2023-04-17T09:04:43.850Z,99988.94
2023-04-17T09:07:13.630Z,99998.59
2023-04-17T09:09:57.055Z,99996.13
2023-04-17T09:12:25.104Z,99992.22
2023-04-17T09:14:52.265Z,99987.31
2023-04-17T09:17:21.146Z,99989.31
2023-04-17T09:20:12.202Z,99989.56
2023-04-17T09:22:40.997Z,99983.19
2023-04-17T09:25:18.720Z,99992.72
2023-04-17T09:27:48.020Z,99996.00
2023-04-17T09:30:15.140Z,99990.28
2023-04-17T09:32:42.070Z,99986.88
2023-04-17T09:35:09.213Z,99985.28
2023-04-17T09:37:49.713Z,99984.59
2023-04-17T09:40:17.811Z,99984.72
2023-04-17T09:43:00.517Z,99979.53
2023-04-17T09:45:33.437Z,99981.13
2023-04-17T09:48:01.257Z,99986.59
2023-04-17T09:50:28.824Z,99979.25
2023-04-17T09:52:56.743Z,99971.97
2023-04-17T09:55:26.659Z,99968.19
2023-04-17T09:57:58.474Z,99973.25
2023-04-17T10:00:29.625Z,99970.53
2023-04-17T10:02:58.931Z,99966.72
2023-04-17T10:05:29.192Z,99958.94
2023-04-17T10:07:57.014Z,99958.34
2023-04-17T10:10:26.351Z,99954.72
2023-04-17T10:12:56.269Z,99954.41
2023-04-17T10:15:24.869Z,99951.72
2023-04-17T10:17:56.749Z,99946.78
2023-04-17T10:20:30.186Z,99946.00
2023-04-17T10:22:57.150Z,99954.69
2023-04-17T10:25:26.689Z,99952.25
2023-04-17T10:28:03.388Z,99940.72
2023-04-17T10:30:49.098Z,99943.00
2023-04-17T10:33:16.619Z,99947.22
2023-04-17T10:35:43.600Z,99941.84
2023-04-17T10:38:11.511Z,99933.72
2023-04-17T10:40:39.909Z,99937.25
2023-04-17T10:43:14.906Z,99934.19
2023-04-17T10:46:00.519Z,99929.41
2023-04-17T10:48:29.449Z,99919.47
2023-04-17T10:50:57.128Z,99927.88
2023-04-17T10:53:40.599Z,99929.91
2023-04-17T10:56:08.593Z,99916.28
2023-04-17T10:58:39.288Z,99921.66
2023-04-17T11:01:11.449Z,99924.88
2023-04-17T11:03:39.075Z,99925.56
2023-04-17T11:06:07.370Z,99917.56
2023-04-17T11:08:34.884Z,99922.91
2023-04-17T11:11:01.953Z,99912.31
2023-04-17T11:13:33.880Z,99908.19
2023-04-17T11:16:03.200Z,99909.28
2023-04-17T11:18:30.066Z,99920.88
2023-04-17T11:20:58.208Z,99922.34
2023-04-17T11:23:29.953Z,99906.75
2023-04-17T11:25:56.934Z,99907.78
2023-04-17T11:28:23.908Z,99910.72
2023-04-17T11:30:50.852Z,99913.75
2023-04-17T11:33:17.823Z,99896.78
2023-04-17T11:35:44.768Z,99899.94
2023-04-17T11:38:24.626Z,99898.28
2023-04-17T11:40:59.337Z,99897.81
2023-04-17T11:43:27.713Z,99898.84
2023-04-17T11:45:56.623Z,99897.00
2023-04-17T11:48:30.317Z,99907.03
2023-04-17T11:50:59.221Z,99906.91
2023-04-17T11:53:26.125Z,99894.88
2023-04-17T11:56:14.338Z,99886.06
2023-04-17T11:58:50.504Z,99898.28
2023-04-17T12:01:18.986Z,99892.97
2023-04-17T12:03:48.008Z,99894.50
2023-04-17T12:06:15.252Z,99895.78
2023-04-17T12:08:47.746Z,99889.78
2023-04-17T12:11:25.547Z,99893.69
2023-04-17T12:13:59.932Z,99893.88
2023-04-17T12:16:29.144Z,99891.03
2023-04-17T12:18:56.837Z,99886.22
2023-04-17T12:21:24.231Z,99885.19
2023-04-17T12:23:51.737Z,99879.41
2023-04-17T12:26:20.438Z,99886.19
2023-04-17T12:28:47.472Z,99888.34
2023-04-17T12:31:14.362Z,99878.25
2023-04-17T12:33:41.608Z,99881.09
2023-04-17T12:36:09.112Z,99867.69
2023-04-17T12:38:36.226Z,99873.59
2023-04-17T12:41:03.129Z,99866.75
2023-04-17T12:43:31.536Z,99879.44
2023-04-17T12:45:58.784Z,99875.28
2023-04-17T12:48:26.875Z,99870.00
2023-04-17T12:50:54.559Z,99867.09
2023-04-17T12:53:21.751Z,99863.25
2023-04-17T12:55:49.272Z,99861.19
2023-04-17T12:58:16.820Z,99854.09
2023-04-17T13:00:44.743Z,99871.72
2023-04-17T13:03:12.307Z,99858.59
2023-04-17T13:05:39.804Z,99861.22
2023-04-17T13:08:10.181Z,99856.16
2023-04-17T13:10:37.052Z,99851.47
2023-04-17T13:13:04.938Z,99853.06
2023-04-17T13:15:33.151Z,99841.78
2023-04-17T13:18:00.249Z,99845.94
2023-04-17T13:20:27.464Z,99846.47
2023-04-17T13:22:54.885Z,99836.72
2023-04-17T13:25:23.020Z,99833.59
2023-04-17T13:27:49.959Z,99833.28
2023-04-17T13:30:16.987Z,99843.00
2023-04-17T13:32:45.065Z,99834.34
2023-04-17T13:35:13.536Z,99845.91
2023-04-17T13:37:41.414Z,99833.28
2023-04-17T13:40:12.163Z,99828.47
2023-04-17T13:42:39.622Z,99838.44
2023-04-17T13:45:07.280Z,99841.06
2023-04-17T13:47:34.492Z,99827.88
2023-04-17T13:50:02.056Z,99829.75
2023-04-17T13:52:31.476Z,99822.13
2023-04-17T13:54:58.305Z,99829.81
2023-04-17T13:57:25.112Z,99824.25
2023-04-17T13:59:51.914Z,99825.28
2023-04-17T14:02:19.452Z,99823.16
2023-04-17T14:04:46.609Z,99825.22
2023-04-17T14:07:15.471Z,99816.31
2023-04-17T14:09:42.566Z,99821.09
2023-04-17T14:12:09.605Z,99825.22
2023-04-17T14:14:36.561Z,99819.00
2023-04-17T14:17:04.452Z,99820.63
2023-04-17T14:19:34.357Z,99823.41
2023-04-17T14:22:01.140Z,99826.53
2023-04-17T14:24:27.999Z,99815.69
2023-04-17T14:26:54.852Z,99818.25
2023-04-17T14:29:21.758Z,99816.91
2023-04-17T14:31:49.132Z,99820.53
2023-04-17T14:34:16.027Z,99818.41
2023-04-17T14:36:43.628Z,99820.06
2023-04-17T14:39:11.709Z,99796.38
2023-04-17T14:41:38.845Z,99816.84
2023-04-17T14:44:05.802Z,99814.13
2023-04-17T14:46:33.110Z,99823.03
2023-04-17T14:49:00.642Z,99821.19
2023-04-17T14:51:28.440Z,99817.91
2023-04-17T14:53:57.629Z,99812.59
2023-04-17T14:56:24.450Z,99817.34
2023-04-17T14:58:51.326Z,99817.69
2023-04-17T15:01:20.404Z,99812.47
2023-04-17T15:03:48.664Z,99820.28
2023-04-17T15:06:16.642Z,99812.22
2023-04-17T15:08:43.666Z,99823.88
2023-04-17T15:11:10.561Z,99829.22
2023-04-17T15:13:37.691Z,99820.84
2023-04-17T15:16:04.827Z,99817.91
2023-04-17T15:18:32.267Z,99819.91
2023-04-17T15:21:01.421Z,99838.75
2023-04-17T15:23:32.039Z,99819.44
2023-04-17T15:25:58.830Z,99828.66
2023-04-17T15:28:25.911Z,99823.31
2023-04-17T15:30:55.196Z,99831.69
2023-04-17T15:33:22.077Z,99831.47
2023-04-17T15:35:53.549Z,99829.66
2023-04-17T15:38:20.287Z,99833.84
2023-04-17T15:40:47.589Z,99838.38
2023-04-17T15:43:15.688Z,99845.19
2023-04-17T15:45:42.829Z,99828.41
2023-04-17T15:48:10.385Z,99835.84
2023-04-17T15:50:37.827Z,99835.78
2023-04-17T15:53:04.644Z,99838.53
2023-04-17T15:55:33.292Z,99847.31
2023-04-17T15:58:00.318Z,99852.00
2023-04-17T16:00:27.238Z,99848.34
2023-04-17T16:02:54.243Z,99835.31
2023-04-17T16:05:22.694Z,99849.63
2023-04-17T16:07:49.611Z,99844.97
2023-04-17T16:10:17.028Z,99857.13
2023-04-17T16:12:46.836Z,99859.31
2023-04-17T16:15:17.919Z,99851.03
2023-04-17T16:17:45.983Z,99855.44
2023-04-17T16:20:13.379Z,99861.31
2023-04-17T16:22:40.770Z,99857.56
2023-04-17T16:25:08.157Z,99863.25
2023-04-17T16:27:35.062Z,99862.41
2023-04-17T16:30:03.082Z,99851.03
2023-04-17T16:32:32.227Z,99862.16
2023-04-17T16:35:01.204Z,99866.75
2023-04-17T16:37:29.856Z,99867.84
2023-04-17T16:39:56.716Z,99871.34
2023-04-17T16:42:24.252Z,99865.38
2023-04-17T16:44:51.164Z,99881.88
2023-04-17T16:47:18.313Z,99893.50
2023-04-17T16:49:45.231Z,99900.44
2023-04-17T16:52:13.006Z,99901.53
2023-04-17T16:54:42.355Z,99913.03
2023-04-17T16:57:11.885Z,99902.97
2023-04-17T16:59:38.656Z,99902.88
2023-04-17T17:02:05.571Z,99899.84
2023-04-17T17:04:32.547Z,99896.75
2023-04-17T17:06:59.656Z,99902.16
2023-04-17T17:09:26.903Z,99903.28
2023-04-17T17:11:53.866Z,99900.19
2023-04-17T17:14:21.073Z,99903.31
2023-04-17T17:16:48.344Z,99907.94
2023-04-17T17:19:15.440Z,99895.03
2023-04-17T17:21:42.604Z,99907.19
2023-04-17T17:24:09.438Z,99918.06
2023-04-17T17:26:37.071Z,99912.03
2023-04-17T17:29:04.894Z,99907.72
2023-04-17T17:31:34.393Z,99913.53
2023-04-17T17:35:17.385Z,99913.59
2023-04-17T17:37:28.581Z,99909.16
2023-04-17T17:39:55.653Z,99918.47
2023-04-17T17:42:24.307Z,99915.72
2023-04-17T17:44:56.900Z,99915.00
2023-04-17T17:47:26.456Z,99915.09
2023-04-17T17:50:04.334Z,99918.94
2023-04-17T17:52:47.419Z,99923.81
2023-04-17T17:55:20.723Z,99922.09
2023-04-17T17:57:49.660Z,99916.97
2023-04-17T18:00:18.259Z,99928.97
2023-04-17T18:02:49.180Z,99921.03
2023-04-17T18:05:19.444Z,99925.75
2023-04-17T18:07:48.018Z,99926.13
2023-04-17T18:10:22.164Z,99931.03
2023-04-17T18:12:50.760Z,99929.75
2023-04-17T18:15:17.884Z,99933.78
2023-04-17T18:17:46.349Z,99938.44
2023-04-17T18:20:17.387Z,99936.00
2023-04-17T18:22:47.941Z,99937.75
2023-04-17T18:25:20.299Z,99940.00
2023-04-17T18:27:51.603Z,99937.13
2023-04-17T18:30:21.057Z,99950.41
2023-04-17T18:32:53.191Z,99933.66
2023-04-17T18:35:22.196Z,99946.94
2023-04-17T18:37:57.168Z,99941.00
2023-04-17T18:40:23.999Z,99937.91
2023-04-17T18:42:53.982Z,99938.41
2023-04-17T18:45:21.108Z,99934.84
2023-04-17T18:47:49.377Z,99933.50
2023-04-17T18:50:21.780Z,99932.41
2023-04-17T18:52:52.818Z,99938.97
2023-04-17T18:55:19.731Z,99945.00
2023-04-17T18:57:47.819Z,99948.19
2023-04-17T19:00:16.000Z,99935.66
2023-04-17T19:02:42.997Z,99947.03
2023-04-17T19:05:10.131Z,99946.34
2023-04-17T19:07:37.073Z,99949.31
2023-04-17T19:10:04.444Z,99947.81
2023-04-17T19:12:31.679Z,99947.31
2023-04-17T19:14:59.161Z,99960.16
2023-04-17T19:17:25.927Z,99956.88
2023-04-17T19:19:52.830Z,99965.69
2023-04-17T19:22:20.065Z,99950.91
2023-04-17T19:24:50.027Z,99957.38
2023-04-17T19:27:17.714Z,99960.56
2023-04-17T19:29:44.811Z,99960.56
2023-04-17T19:32:12.466Z,99950.03
2023-04-17T19:34:39.465Z,99955.06
2023-04-17T19:37:06.465Z,99954.88
2023-04-17T19:39:33.291Z,99955.69
2023-04-17T19:42:01.215Z,99955.31
2023-04-17T19:44:28.184Z,99954.03
2023-04-17T19:46:55.372Z,99951.72
2023-04-17T19:49:22.215Z,99956.25
2023-04-17T19:51:49.340Z,99961.09
2023-04-17T19:54:16.210Z,99956.13
2023-04-17T19:56:44.456Z,99958.94
2023-04-17T19:59:13.315Z,99955.56
2023-04-17T20:01:43.406Z,99951.00
2023-04-17T20:04:11.884Z,99948.59
2023-04-17T20:06:41.208Z,99947.66
2023-04-17T20:09:11.932Z,99953.06
2023-04-17T20:11:44.158Z,99953.28
2023-04-17T20:14:14.766Z,99962.28
2023-04-17T20:16:42.127Z,99955.72
2023-04-17T20:19:09.411Z,99955.09
2023-04-17T20:21:36.272Z,99947.28
2023-04-17T20:24:03.171Z,99951.88
2023-04-17T20:26:29.931Z,99946.16
2023-04-17T20:28:56.769Z,99950.56
2023-04-17T20:31:25.075Z,99950.75
2023-04-17T20:33:52.014Z,99954.50
2023-04-17T20:36:18.801Z,99945.31
2023-04-17T20:38:46.267Z,99939.50
2023-04-17T20:41:13.423Z,99954.50
2023-04-17T20:43:41.507Z,99945.91
2023-04-17T20:46:08.501Z,99957.88
2023-04-17T20:48:35.442Z,99953.13
2023-04-17T20:51:05.451Z,99955.72
2023-04-17T20:53:33.066Z,99949.09
2023-04-17T20:55:59.960Z,99959.94
2023-04-17T20:58:26.836Z,99966.50
2023-04-17T21:01:00.692Z,99963.69
2023-04-17T21:03:33.431Z,99961.16
2023-04-17T21:06:01.237Z,99955.56
2023-04-17T21:08:28.238Z,99968.09
2023-04-17T21:10:55.155Z,99968.06
2023-04-17T21:13:23.016Z,99969.31
2023-04-17T21:15:50.013Z,99972.09
2023-04-17T21:18:16.945Z,99979.50
2023-04-17T21:20:44.124Z,99967.09
2023-04-17T21:23:12.290Z,99971.72
2023-04-17T21:25:39.155Z,99968.97
2023-04-17T21:28:06.139Z,99964.56
2023-04-17T21:30:33.282Z,99963.75
2023-04-17T21:33:00.199Z,99962.97
2023-04-17T21:35:27.314Z,99959.78
2023-04-17T21:37:54.507Z,99956.19
2023-04-17T21:40:21.357Z,99955.41
2023-04-17T21:42:48.110Z,99964.41
2023-04-17T21:45:16.279Z,99967.44
2023-04-17T21:47:43.101Z,99972.25
2023-04-17T21:50:10.514Z,99967.47
2023-04-17T21:52:37.514Z,99972.25
2023-04-17T21:55:07.908Z,99967.50
2023-04-17T21:57:37.080Z,99965.06
2023-04-17T22:00:05.506Z,99963.91
2023-04-17T22:02:54.079Z,99961.72
2023-04-17T22:05:23.894Z,99960.53
2023-04-17T22:07:54.843Z,99958.53
2023-04-17T22:10:22.959Z,99958.31
2023-04-17T22:12:49.972Z,99963.53
2023-04-17T22:15:17.358Z,99965.13
2023-04-17T22:17:44.711Z,99966.13
2023-04-17T22:20:12.298Z,99972.31
2023-04-17T22:22:59.567Z,99966.34
2023-04-17T22:26:41.219Z,99959.16
2023-04-17T22:29:45.647Z,99954.19
2023-04-17T22:32:55.452Z,99963.75
2023-04-17T22:36:18.854Z,99956.19
2023-04-17T22:39:22.493Z,99958.00
2023-04-17T22:42:45.546Z,99956.81
2023-04-17T22:45:12.440Z,99968.97
2023-04-17T22:47:41.257Z,99954.41
2023-04-17T22:50:10.519Z,99963.19
2023-04-17T22:52:37.812Z,99962.78
2023-04-17T22:55:04.962Z,99957.59
2023-04-17T22:57:32.147Z,99962.00
2023-04-17T22:59:58.962Z,99953.41
2023-04-17T23:02:25.852Z,99949.81
2023-04-17T23:04:52.962Z,99950.59
2023-04-17T23:07:19.759Z,99956.00
2023-04-17T23:09:48.458Z,99957.19
2023-04-17T23:12:15.398Z,99950.22
2023-04-17T23:14:43.564Z,99957.19
2023-04-17T23:17:12.780Z,99947.22
2023-04-17T23:19:39.652Z,99944.78
2023-04-17T23:22:07.810Z,99947.22
2023-04-17T23:24:35.348Z,99936.81
2023-04-17T23:27:02.596Z,99938.63
2023-04-17T23:29:29.925Z,99937.81
2023-04-17T23:31:56.861Z,99930.84
2023-04-17T23:34:23.692Z,99942.41
2023-04-17T23:36:50.753Z,99937.22
2023-04-17T23:39:17.632Z,99934.22
2023-04-17T23:41:44.614Z,99934.63
2023-04-17T23:44:11.778Z,99936.81
2023-04-17T23:46:38.943Z,99935.03
2023-04-17T23:49:05.974Z,99928.03
2023-04-17T23:51:32.812Z,99932.44
2023-04-17T23:54:01.121Z,99928.81
2023-04-17T23:56:30.189Z,99934.44
2023-04-17T23:58:57.537Z,99928.59
